createdAt,value
2022-11-18T05:02:36.580Z,9.50
2022-11-18T05:05:08.299Z,9.50
2022-11-18T05:07:40.028Z,9.40
2022-11-18T05:10:11.731Z,9.40
2022-11-18T05:12:43.377Z,9.40
2022-11-18T05:15:15.147Z,9.40
2022-11-18T05:17:48.152Z,9.30
2022-11-18T05:20:19.938Z,9.30
2022-11-18T05:22:51.606Z,9.30
2022-11-18T05:25:23.232Z,9.30
2022-11-18T05:27:54.898Z,9.30
2022-11-18T05:30:26.531Z,9.30
2022-11-18T05:32:59.565Z,9.30
2022-11-18T05:35:31.204Z,9.30
2022-11-18T05:38:02.845Z,9.30
2022-11-18T05:40:34.483Z,9.30
2022-11-18T05:43:06.156Z,9.30
2022-11-18T05:45:37.799Z,9.30
2022-11-18T05:48:10.819Z,9.20
2022-11-18T05:50:42.456Z,9.20
2022-11-18T05:53:14.280Z,9.10
2022-11-18T05:55:49.080Z,9.10
2022-11-18T05:58:20.837Z,9.20
2022-11-18T06:00:54.049Z,9.10
2022-11-18T06:03:30.947Z,9.00
2022-11-18T06:06:03.377Z,9.00
2022-11-18T06:08:35.978Z,9.10
2022-11-18T06:11:07.635Z,9.10
2022-11-18T06:13:40.648Z,9.10
2022-11-18T06:16:12.623Z,9.20
2022-11-18T06:18:45.591Z,8.90
2022-11-18T06:21:17.231Z,9.10
2022-11-18T06:23:48.887Z,9.20
2022-11-18T06:26:20.561Z,9.20
2022-11-18T06:28:52.204Z,9.10
2022-11-18T06:31:23.840Z,9.10
2022-11-18T06:33:56.836Z,9.10
2022-11-18T06:36:28.477Z,9.50
2022-11-18T06:39:03.498Z,9.30
2022-11-18T06:41:35.188Z,9.00
2022-11-18T06:44:06.959Z,9.20
2022-11-18T06:46:38.643Z,9.30
2022-11-18T06:49:11.651Z,9.40
2022-11-18T06:51:43.319Z,9.50
2022-11-18T06:54:15.029Z,9.50
2022-11-18T06:56:46.761Z,9.50
2022-11-18T06:59:18.758Z,9.50
2022-11-18T07:01:50.631Z,9.60
2022-11-18T07:04:23.637Z,9.50
2022-11-18T07:06:55.351Z,9.80
2022-11-18T07:09:27.075Z,8.90
2022-11-18T07:11:58.739Z,9.90
2022-11-18T07:14:30.408Z,9.50
2022-11-18T07:17:02.044Z,9.50
2022-11-18T07:19:36.039Z,9.60
2022-11-18T07:22:07.818Z,9.60
2022-11-18T07:24:39.487Z,9.60
2022-11-18T07:27:11.111Z,9.60
2022-11-18T07:29:42.776Z,9.50
2022-11-18T07:32:14.423Z,9.50
2022-11-18T07:34:47.419Z,9.40
2022-11-18T07:37:19.078Z,9.80
2022-11-18T07:39:50.741Z,9.60
2022-11-18T07:42:22.380Z,9.70
2022-11-18T07:44:54.046Z,9.70
2022-11-18T07:47:25.685Z,9.70
2022-11-18T07:49:58.678Z,9.80
2022-11-18T07:52:30.352Z,10.00
2022-11-18T07:55:02.013Z,9.90
2022-11-18T07:57:33.631Z,9.90
2022-11-18T08:00:06.394Z,9.90
2022-11-18T08:02:38.020Z,10.10
2022-11-18T08:05:16.302Z,10.10
2022-11-18T08:07:49.445Z,10.10
2022-11-18T08:10:21.094Z,10.20
2022-11-18T08:12:52.719Z,10.30
2022-11-18T08:15:24.379Z,10.30
2022-11-18T08:17:56.017Z,10.40
2022-11-18T08:20:29.028Z,10.40
2022-11-18T08:23:00.658Z,10.50
2022-11-18T08:25:32.312Z,10.60
2022-11-18T08:28:04.182Z,10.60
2022-11-18T08:30:35.977Z,10.70
2022-11-18T08:33:07.598Z,10.80
2022-11-18T08:35:40.603Z,10.80
2022-11-18T08:40:45.268Z,10.90
2022-11-18T08:43:16.884Z,11.00
2022-11-18T08:45:48.540Z,11.50
2022-11-18T08:48:20.201Z,11.10
2022-11-18T08:50:53.224Z,11.10
2022-11-18T08:53:24.880Z,11.00
2022-11-18T08:55:57.333Z,11.10
2022-11-18T08:58:29.125Z,11.20
2022-11-18T09:01:04.679Z,11.20
2022-11-18T09:03:36.403Z,11.20
2022-11-18T09:06:10.241Z,11.20
2022-11-18T09:08:41.883Z,11.20
2022-11-18T09:11:14.377Z,11.20
2022-11-18T09:14:53.359Z,11.20
2022-11-18T09:16:37.744Z,11.20
2022-11-18T09:19:39.687Z,11.20
2022-11-18T09:22:02.533Z,11.20
2022-11-18T09:24:34.194Z,11.10
2022-11-18T09:27:06.146Z,11.00
2022-11-18T09:29:39.712Z,11.00
2022-11-18T09:32:11.403Z,10.90
2022-11-18T09:34:43.030Z,10.90
2022-11-18T09:37:16.019Z,10.90
2022-11-18T09:39:47.653Z,10.90
2022-11-18T09:42:31.303Z,10.90
2022-11-18T09:45:13.529Z,10.80
2022-11-18T09:47:46.985Z,10.90
2022-11-18T09:50:47.894Z,10.90
2022-11-18T09:53:17.833Z,10.90
2022-11-18T09:55:49.625Z,11.00
2022-11-18T09:58:22.595Z,11.10
2022-11-18T10:00:54.242Z,11.20
2022-11-18T10:03:27.216Z,11.30
2022-11-18T10:06:03.293Z,11.40
2022-11-18T10:08:40.410Z,11.40
2022-11-18T10:11:13.863Z,11.40
2022-11-18T10:13:51.808Z,11.50
2022-11-18T10:16:29.423Z,11.60
2022-11-18T10:19:04.407Z,11.60
2022-11-18T10:21:42.117Z,11.70
2022-11-18T10:24:16.903Z,11.90
2022-11-18T10:26:50.845Z,12.10
2022-11-18T10:29:22.532Z,12.30
2022-11-18T10:31:59.480Z,12.50
2022-11-18T10:34:35.439Z,12.50
2022-11-18T10:37:10.171Z,12.30
2022-11-18T10:39:50.962Z,12.30
2022-11-18T10:42:26.776Z,12.30
2022-11-18T10:45:14.284Z,12.20
2022-11-18T10:47:55.756Z,12.20
2022-11-18T10:50:32.535Z,12.10
2022-11-18T10:53:04.522Z,12.20
2022-11-18T10:55:37.497Z,12.10
2022-11-18T10:58:10.298Z,12.30
2022-11-18T11:00:44.118Z,12.10
2022-11-18T11:03:21.483Z,12.10
2022-11-18T11:06:31.142Z,12.50
2022-11-18T11:09:05.617Z,12.20
2022-11-18T11:11:39.639Z,12.30
2022-11-18T11:16:52.745Z,12.40
2022-11-18T11:19:26.670Z,12.40
2022-11-18T11:21:58.323Z,12.40
2022-11-18T11:24:30.026Z,12.50
2022-11-18T11:30:15.150Z,12.70
2022-11-18T11:33:11.184Z,12.70
2022-11-18T11:35:50.168Z,12.80
2022-11-18T11:38:26.418Z,12.90
2022-11-18T11:41:02.425Z,12.80
2022-11-18T11:43:44.816Z,12.70
2022-11-18T11:46:27.076Z,12.60
2022-11-18T11:49:05.747Z,12.50
2022-11-18T11:51:40.109Z,12.40
2022-11-18T11:54:22.151Z,12.30
2022-11-18T11:56:55.320Z,12.30
2022-11-18T11:59:34.944Z,12.20
2022-11-18T12:02:42.205Z,12.10
2022-11-18T12:05:20.090Z,12.10
2022-11-18T12:07:52.839Z,12.10
2022-11-18T12:10:28.770Z,12.10
2022-11-18T12:13:11.386Z,12.10
2022-11-18T12:15:50.129Z,12.10
2022-11-18T12:18:24.312Z,12.10
2022-11-18T12:20:56.173Z,12.20
2022-11-18T12:23:28.129Z,12.20
2022-11-18T12:26:01.781Z,12.20
2022-11-18T12:28:35.603Z,12.30
2022-11-18T12:31:30.148Z,12.30
2022-11-18T12:34:16.499Z,11.80
2022-11-18T12:36:48.200Z,12.40
2022-11-18T12:39:56.635Z,12.50
2022-11-18T12:42:41.787Z,12.60
2022-11-18T12:45:55.243Z,12.50
2022-11-18T12:48:33.629Z,12.50
2022-11-18T12:51:43.844Z,12.50
2022-11-18T12:54:36.835Z,12.50
2022-11-18T12:57:13.328Z,12.60
2022-11-18T12:59:44.993Z,12.70
2022-11-18T13:02:22.202Z,12.80
2022-11-18T13:05:06.406Z,12.90
2022-11-18T13:07:44.360Z,13.00
2022-11-18T13:10:20.950Z,13.00
2022-11-18T13:12:52.664Z,13.10
2022-11-18T13:15:24.352Z,13.10
2022-11-18T13:18:05.805Z,13.10
2022-11-18T13:20:39.509Z,12.90
2022-11-18T13:23:28.074Z,12.90
2022-11-18T13:26:04.017Z,12.90
2022-11-18T13:28:38.156Z,12.80
2022-11-18T13:31:14.735Z,12.80
2022-11-18T13:33:46.402Z,12.80
2022-11-18T13:36:20.160Z,12.70
2022-11-18T13:38:55.493Z,12.80
2022-11-18T13:41:27.597Z,12.70
2022-11-18T13:44:15.200Z,12.70
2022-11-18T13:46:47.960Z,12.80
2022-11-18T13:49:21.600Z,12.80
2022-11-18T13:51:54.662Z,12.80
2022-11-18T13:54:26.349Z,12.80
2022-11-18T13:56:58.051Z,12.80
2022-11-18T13:59:30.166Z,12.90
2022-11-18T14:02:02.225Z,13.00
2022-11-18T14:04:33.900Z,12.90
2022-11-18T14:07:29.094Z,13.00
2022-11-18T14:10:01.790Z,13.00
2022-11-18T14:12:33.940Z,13.00
2022-11-18T14:15:18.959Z,13.00
2022-11-18T14:17:51.921Z,12.90
2022-11-18T14:20:23.711Z,12.90
2022-11-18T14:22:57.686Z,12.90
2022-11-18T14:25:30.343Z,12.90
2022-11-18T14:28:11.747Z,12.90
2022-11-18T14:30:44.723Z,12.90
2022-11-18T14:33:20.398Z,12.90
2022-11-18T14:35:54.002Z,12.80
2022-11-18T14:38:43.606Z,12.80
2022-11-18T14:41:23.991Z,12.80
2022-11-18T14:43:55.659Z,12.60
2022-11-18T14:46:27.324Z,12.50
2022-11-18T14:48:59.846Z,12.50
2022-11-18T14:51:31.476Z,12.40
2022-11-18T14:54:04.572Z,12.30
2022-11-18T14:56:36.214Z,12.20
2022-11-18T14:59:09.705Z,12.10
2022-11-18T15:01:41.675Z,12.10
2022-11-18T15:04:13.572Z,12.00
2022-11-18T15:06:45.425Z,11.90
2022-11-18T15:09:18.609Z,11.80
2022-11-18T15:11:50.265Z,11.70
2022-11-18T15:14:22.084Z,11.60
2022-11-18T15:16:54.005Z,11.50
2022-11-18T15:19:25.710Z,11.50
2022-11-18T15:21:57.377Z,11.40
2022-11-18T15:24:30.362Z,11.30
2022-11-18T15:27:02.047Z,11.30
2022-11-18T15:29:33.706Z,11.10
2022-11-18T15:32:05.466Z,11.00
2022-11-18T15:34:37.217Z,11.00
2022-11-18T15:37:11.029Z,10.90
2022-11-18T15:39:44.183Z,10.70
2022-11-18T15:42:20.449Z,10.70
2022-11-18T15:44:54.718Z,10.60
2022-11-18T15:47:26.382Z,10.60
2022-11-18T15:49:58.090Z,10.50
2022-11-18T15:52:29.775Z,10.50
2022-11-18T15:55:03.244Z,10.40
2022-11-18T15:57:35.015Z,10.30
2022-11-18T16:00:07.471Z,10.30
2022-11-18T16:02:39.120Z,10.30
2022-11-18T16:05:10.793Z,10.40
2022-11-18T16:07:42.486Z,10.20
2022-11-18T16:10:16.063Z,10.10
2022-11-18T16:12:47.727Z,10.10
2022-11-18T16:15:19.406Z,10.10
2022-11-18T16:17:51.076Z,10.10
2022-11-18T16:20:22.744Z,10.10
2022-11-18T16:22:55.360Z,10.00
2022-11-18T16:25:28.366Z,10.00
2022-11-18T16:28:05.585Z,9.90
2022-11-18T16:30:39.149Z,10.00
2022-11-18T16:33:10.795Z,10.00
2022-11-18T16:35:46.795Z,10.00
2022-11-18T16:38:18.425Z,10.00
2022-11-18T16:40:56.152Z,10.10
2022-11-18T16:43:27.799Z,10.10
2022-11-18T16:45:59.484Z,10.10
2022-11-18T16:48:31.146Z,10.20
2022-11-18T16:51:16.887Z,10.20
2022-11-18T16:53:51.721Z,10.20
2022-11-18T16:56:26.546Z,10.20
2022-11-18T16:58:58.512Z,10.30
2022-11-18T17:01:30.514Z,10.20
2022-11-18T17:04:02.348Z,10.30
2022-11-18T17:06:34.005Z,10.20
2022-11-18T17:09:05.727Z,10.20
2022-11-18T17:11:38.761Z,10.20
2022-11-18T17:14:10.539Z,10.20
2022-11-18T17:16:42.219Z,10.20
2022-11-18T17:19:14.937Z,10.00
2022-11-18T17:21:46.711Z,10.10
2022-11-18T17:24:20.190Z,10.10
2022-11-18T17:26:53.559Z,10.10
2022-11-18T17:29:25.218Z,10.10
2022-11-18T17:31:56.876Z,10.10
2022-11-18T17:34:28.535Z,10.00
2022-11-18T17:37:06.295Z,10.00
2022-11-18T17:39:38.562Z,10.30
2022-11-18T17:42:11.545Z,10.00
2022-11-18T17:44:43.215Z,9.90
2022-11-18T17:47:14.926Z,9.80
2022-11-18T17:49:46.601Z,9.80
2022-11-18T17:52:18.241Z,9.70
2022-11-18T17:54:49.909Z,9.60
2022-11-18T17:57:22.934Z,9.60
2022-11-18T17:59:54.618Z,9.70
2022-11-18T18:02:26.248Z,9.60
2022-11-18T18:04:57.954Z,9.60
2022-11-18T18:07:29.993Z,9.60
2022-11-18T18:10:01.793Z,9.60
2022-11-18T18:12:36.325Z,9.60
2022-11-18T18:15:08.574Z,9.60
2022-11-18T18:17:40.198Z,9.60
2022-11-18T18:20:11.857Z,9.60
2022-11-18T18:22:43.518Z,9.60
2022-11-18T18:25:15.221Z,9.60
2022-11-18T18:27:48.267Z,9.70
2022-11-18T18:30:20.099Z,9.70
2022-11-18T18:32:52.733Z,9.70
2022-11-18T18:35:24.515Z,9.80
2022-11-18T18:37:56.165Z,9.70
2022-11-18T18:40:27.832Z,9.80
2022-11-18T18:43:00.828Z,9.70
2022-11-18T18:45:32.471Z,9.80
2022-11-18T18:48:04.488Z,9.90
2022-11-18T18:50:36.201Z,9.90
2022-11-18T18:53:07.856Z,9.90
2022-11-18T18:55:44.748Z,9.90
2022-11-18T18:58:18.184Z,10.00
2022-11-18T19:00:53.090Z,9.90
2022-11-18T19:03:27.129Z,9.90
2022-11-18T19:06:47.525Z,9.80
2022-11-18T19:08:50.435Z,9.80
2022-11-18T19:11:22.325Z,9.80
2022-11-18T19:13:55.335Z,9.80
2022-11-18T19:16:27.092Z,9.80
2022-11-18T19:18:58.789Z,9.70
2022-11-18T19:21:30.708Z,9.70
2022-11-18T19:24:02.526Z,9.80
2022-11-18T19:26:34.274Z,9.60
2022-11-18T19:29:07.268Z,9.60
2022-11-18T19:31:38.946Z,9.50
2022-11-18T19:34:10.743Z,9.40
2022-11-18T19:36:42.423Z,9.40
2022-11-18T19:39:14.126Z,9.50
2022-11-18T19:41:45.790Z,9.40
2022-11-18T19:44:18.787Z,9.40
2022-11-18T19:46:50.446Z,9.40
2022-11-18T19:49:22.491Z,9.30
2022-11-18T19:51:54.399Z,9.40
2022-11-18T19:54:26.069Z,9.40
2022-11-18T19:56:57.736Z,9.40
2022-11-18T19:59:30.720Z,9.40
2022-11-18T20:02:02.427Z,9.40
2022-11-18T20:04:34.059Z,9.60
2022-11-18T20:07:05.760Z,9.40
2022-11-18T20:09:37.440Z,9.50
2022-11-18T20:12:09.090Z,9.40
2022-11-18T20:14:42.064Z,9.50
2022-11-18T20:17:13.733Z,9.50
2022-11-18T20:19:45.383Z,9.50
2022-11-18T20:22:17.076Z,9.50
2022-11-18T20:24:48.705Z,9.50
2022-11-18T20:27:20.408Z,9.50
2022-11-18T20:29:53.412Z,9.40
2022-11-18T20:32:25.104Z,9.50
2022-11-18T20:34:56.745Z,9.50
2022-11-18T20:37:28.403Z,9.50
2022-11-18T20:40:00.051Z,9.50
2022-11-18T20:42:31.738Z,9.50
2022-11-18T20:45:05.788Z,9.60
2022-11-18T20:47:37.434Z,9.50
2022-11-18T20:50:09.199Z,9.50
2022-11-18T20:52:40.883Z,9.60
2022-11-18T20:55:13.465Z,9.60
2022-11-18T20:57:45.152Z,9.50
2022-11-18T21:00:18.851Z,9.50
2022-11-18T21:02:50.495Z,9.50
2022-11-18T21:05:22.142Z,9.50
2022-11-18T21:07:53.803Z,9.50
2022-11-18T21:10:25.438Z,9.60
2022-11-18T21:12:57.136Z,9.50
2022-11-18T21:15:30.167Z,9.50
2022-11-18T21:18:02.123Z,9.60
2022-11-18T21:20:33.788Z,9.50
2022-11-18T21:23:05.451Z,9.50
2022-11-18T21:25:37.405Z,9.50
2022-11-18T21:28:09.092Z,9.50
2022-11-18T21:30:42.059Z,9.40
2022-11-18T21:33:13.786Z,9.50
2022-11-18T21:35:45.454Z,9.50
2022-11-18T21:38:17.120Z,9.40
2022-11-18T21:40:48.756Z,9.40
2022-11-18T21:43:28.677Z,9.50
2022-11-18T21:46:14.285Z,9.40
2022-11-18T21:48:45.984Z,9.50
2022-11-18T21:51:18.397Z,9.40
2022-11-18T21:53:50.050Z,9.40
2022-11-18T21:56:22.316Z,9.50
2022-11-18T21:58:55.099Z,9.40
2022-11-18T22:01:28.771Z,9.40
2022-11-18T22:04:01.485Z,9.50
2022-11-18T22:06:33.618Z,9.40
2022-11-18T22:09:05.604Z,9.40
2022-11-18T22:11:37.268Z,9.40
2022-11-18T22:14:08.976Z,9.40
2022-11-18T22:16:41.950Z,9.40
2022-11-18T22:19:13.614Z,9.50
2022-11-18T22:21:45.251Z,9.50
2022-11-18T22:24:16.937Z,9.50
2022-11-18T22:26:48.580Z,9.60
2022-11-18T22:29:20.573Z,9.50
2022-11-18T22:31:53.907Z,9.50
2022-11-18T22:34:25.707Z,9.50
2022-11-18T22:36:57.371Z,9.50
2022-11-18T22:39:29.123Z,9.40
2022-11-18T22:42:00.769Z,9.40
2022-11-18T22:44:32.444Z,9.40
2022-11-18T22:47:05.595Z,9.40
2022-11-18T22:49:37.284Z,9.40
2022-11-18T22:52:08.959Z,9.40
2022-11-18T22:54:40.846Z,9.40
2022-11-18T22:57:12.551Z,9.40
2022-11-18T22:59:44.279Z,9.40
